»·PEaware :: N20957 KGYR-KSBA

N20957 :: KGYR-KSBA

FLIGHT INFORMATION

Flight Status: Arrived
Operator: Privately registered:
United States
More flights under this callsign
Pilot: Charles P. (32095)
Aircraft: CESSNA 172 SKYHAWK
(C172)
More flights by this aircraft type
Origin: KGYR Phoenix Goodyear
United States
Destination: KSBA Santa Barbara Mun
United States
More flights between these airports :: More routes between these airports
Route:
File this flight plan on PilotEdge
Remarks: N / A
Altitude:
(Current/Filed)
8,500ft
Speed:
(Current/Filed)
124kts
Departed: 19-May-21 01:21 PM
Arrived: 19-May-21 05:07 PM
Distance/Time
Traveled:
376nm/3:46
Distance/Time
To Go:
Arrived

Flight Plot

Page will automatically refresh every two minutes.

Flight plan parsing failed; only flown route is shown


Map Options




Map Legend


Flown Route
Filed Route
Departure Airport
Arrival Airport
Navaid (VOR, NDB)
Fix

Horizontal Profiles

Position Reports

Time Latitude Longitude Heading Altitude Ground
Speed
19-May-21 13:08 33.432617 -112.365517 306 975ft 0kts
19-May-21 13:09 33.432617 -112.365517 306 975ft 0kts
19-May-21 13:10 33.432618 -112.365517 306 975ft 0kts
19-May-21 13:11 33.432618 -112.365517 306 975ft 0kts
19-May-21 13:12 33.432618 -112.365517 306 975ft 0kts
19-May-21 13:13 33.432618 -112.365517 306 975ft 0kts
19-May-21 13:14 33.432618 -112.365517 306 975ft 0kts
19-May-21 13:15 33.432618 -112.365517 306 975ft 0kts
19-May-21 13:16 33.432617 -112.365517 306 975ft 0kts
19-May-21 13:17 33.432618 -112.365517 306 975ft 0kts
19-May-21 13:18 33.432617 -112.365517 306 975ft 0kts
19-May-21 13:19 33.432617 -112.365517 306 975ft 0kts
19-May-21 13:20 33.428941 -112.370115 218 966ft 69kts
19-May-21 13:21 33.409882 -112.388051 220 1530ft 89kts
19-May-21 13:22 33.388228 -112.407531 218 2028ft 102kts
19-May-21 13:23 33.364547 -112.427445 216 2533ft 104kts
19-May-21 13:24 33.360199 -112.452942 307 3036ft 102kts
19-May-21 13:25 33.378775 -112.478702 307 3531ft 101kts
19-May-21 13:26 33.388311 -112.509436 279 4027ft 98kts
19-May-21 13:27 33.393646 -112.540990 281 4532ft 94kts
19-May-21 13:28 33.398908 -112.571658 281 5024ft 93kts
19-May-21 13:29 33.404108 -112.601753 281 5531ft 92kts
19-May-21 13:30 33.409213 -112.631314 281 6027ft 89kts
19-May-21 13:31 33.414201 -112.660424 281 6450ft 95kts
19-May-21 13:32 33.420266 -112.695665 281 6497ft 116kts
19-May-21 13:33 33.426879 -112.734302 281 6496ft 119kts
19-May-21 13:34 33.433560 -112.773368 281 6499ft 119kts
19-May-21 13:35 33.440228 -112.812469 281 6500ft 119kts
19-May-21 13:36 33.446863 -112.851371 281 6501ft 119kts
19-May-21 13:37 33.453509 -112.890494 281 6498ft 119kts
19-May-21 13:38 33.460118 -112.929491 281 6499ft 119kts
19-May-21 13:39 33.466731 -112.968474 281 6500ft 119kts
19-May-21 13:40 33.473317 -113.007479 281 6499ft 119kts
19-May-21 13:41 33.479888 -113.046491 281 6499ft 120kts
19-May-21 13:42 33.486478 -113.085660 281 6499ft 119kts
19-May-21 13:43 33.493062 -113.124830 280 6499ft 119kts
19-May-21 13:44 33.499603 -113.163806 280 6499ft 119kts
19-May-21 13:45 33.506145 -113.202943 280 6501ft 120kts
19-May-21 13:46 33.512488 -113.242117 280 6500ft 119kts
19-May-21 13:47 33.518526 -113.281274 279 6501ft 119kts
19-May-21 13:48 33.524281 -113.320545 279 6500ft 119kts
19-May-21 13:49 33.529739 -113.359890 278 6499ft 119kts
19-May-21 13:50 33.534901 -113.399280 278 6500ft 119kts
19-May-21 13:51 33.539766 -113.438661 277 6499ft 119kts
19-May-21 13:52 33.544359 -113.478232 277 6499ft 119kts
19-May-21 13:53 33.548659 -113.517861 276 6498ft 119kts
19-May-21 13:54 33.552646 -113.557334 276 6498ft 119kts
19-May-21 13:55 33.556372 -113.597005 275 6500ft 120kts
19-May-21 13:56 33.559804 -113.636796 275 6500ft 119kts
19-May-21 13:57 33.562950 -113.676485 274 6498ft 119kts
19-May-21 13:58 33.565799 -113.716204 274 6500ft 119kts
19-May-21 13:59 33.568362 -113.755924 274 6501ft 119kts
19-May-21 14:00 33.570636 -113.795779 273 6500ft 119kts
19-May-21 14:01 33.572608 -113.835623 273 6498ft 119kts
19-May-21 14:02 33.574227 -113.875258 272 6497ft 115kts
19-May-21 14:03 33.575452 -113.914021 271 6501ft 117kts
19-May-21 14:04 33.576392 -113.953607 271 6495ft 119kts
19-May-21 14:05 33.577034 -113.993417 270 6496ft 119kts
19-May-21 14:06 33.577390 -114.033387 270 6499ft 120kts
19-May-21 14:07 33.577491 -114.073453 270 6503ft 119kts
19-May-21 14:08 33.577326 -114.113834 269 6497ft 120kts
19-May-21 14:09 33.576906 -114.153568 269 6505ft 118kts
19-May-21 14:10 33.576183 -114.193513 268 6498ft 119kts
19-May-21 14:11 33.575179 -114.233389 268 6500ft 119kts
19-May-21 14:12 33.573897 -114.273350 267 6500ft 119kts
19-May-21 14:13 33.572333 -114.313124 267 6498ft 117kts
19-May-21 14:14 33.570513 -114.352532 266 6501ft 117kts
19-May-21 14:15 33.568356 -114.392424 266 6506ft 121kts
19-May-21 14:16 33.565924 -114.432758 265 6496ft 120kts
19-May-21 14:17 33.563262 -114.472642 265 6499ft 120kts
19-May-21 14:18 33.560322 -114.512487 264 6500ft 120kts
19-May-21 14:19 33.557120 -114.552282 264 6499ft 119kts
19-May-21 14:20 33.553644 -114.591997 264 6500ft 119kts
19-May-21 14:21 33.549886 -114.631758 263 6499ft 119kts
19-May-21 14:22 33.545865 -114.671298 263 6499ft 119kts
19-May-21 14:23 33.541554 -114.710941 262 6501ft 120kts
19-May-21 14:24 33.536982 -114.750421 262 6499ft 119kts
19-May-21 14:25 33.532140 -114.789814 261 6498ft 118kts
19-May-21 14:26 33.526983 -114.829160 261 6502ft 120kts
19-May-21 14:27 33.521531 -114.868724 260 6501ft 120kts
19-May-21 14:28 33.515833 -114.908173 260 6499ft 120kts
19-May-21 14:29 33.509897 -114.947325 259 6498ft 119kts
19-May-21 14:30 33.503638 -114.986543 259 6501ft 120kts
19-May-21 14:31 33.497136 -115.025771 259 6499ft 120kts
19-May-21 14:32 33.490357 -115.065026 258 6497ft 118kts
19-May-21 14:33 33.483349 -115.103961 258 6499ft 120kts
19-May-21 14:34 33.476058 -115.142914 257 6498ft 119kts
19-May-21 14:35 33.468516 -115.181633 257 6494ft 119kts
19-May-21 14:36 33.460653 -115.220534 256 6498ft 120kts
19-May-21 14:37 33.452559 -115.259289 256 6500ft 119kts
19-May-21 14:38 33.444281 -115.297935 256 6498ft 119kts
19-May-21 14:39 33.435769 -115.336462 255 6500ft 119kts
19-May-21 14:40 33.427097 -115.374549 255 6500ft 116kts
19-May-21 14:41 33.418080 -115.412654 254 6499ft 120kts
19-May-21 14:42 33.408707 -115.451036 254 6505ft 120kts
19-May-21 14:44 33.399057 -115.489503 253 6499ft 120kts
19-May-21 14:45 33.389177 -115.527809 253 6499ft 120kts
19-May-21 14:46 33.379082 -115.565922 252 6502ft 120kts
19-May-21 14:47 33.368695 -115.604158 252 6499ft 120kts
19-May-21 14:48 33.358103 -115.642097 252 6499ft 120kts
19-May-21 14:49 33.347278 -115.679852 251 6499ft 120kts
19-May-21 14:50 33.336169 -115.717599 251 6499ft 120kts
19-May-21 14:51 33.324813 -115.755148 250 6500ft 120kts
19-May-21 14:52 33.313190 -115.792583 250 6499ft 120kts
19-May-21 14:53 33.301322 -115.829873 249 6500ft 120kts
19-May-21 14:54 33.289161 -115.867164 249 6499ft 120kts
19-May-21 14:55 33.276771 -115.904259 248 6500ft 120kts
19-May-21 14:56 33.264156 -115.941179 248 6499ft 120kts
19-May-21 14:57 33.251248 -115.978116 248 6499ft 120kts
19-May-21 14:58 33.238112 -116.014859 247 6500ft 120kts
19-May-21 14:59 33.224747 -116.051442 247 6499ft 120kts
19-May-21 15:00 33.211144 -116.087854 246 6501ft 120kts
19-May-21 15:01 33.197235 -116.124290 246 6499ft 120kts
19-May-21 15:02 33.183160 -116.160392 245 6500ft 120kts
19-May-21 15:03 33.168789 -116.196502 245 6500ft 120kts
19-May-21 15:04 33.154204 -116.232407 244 6498ft 120kts
19-May-21 15:05 33.139335 -116.268262 244 6499ft 120kts
19-May-21 15:06 33.124252 -116.303900 244 6498ft 120kts
19-May-21 15:07 33.108877 -116.339596 243 6497ft 120kts
19-May-21 15:08 33.093270 -116.375035 243 6498ft 120kts
19-May-21 15:08 33.080269 -116.404007 242 6506ft 120kts
19-May-21 15:09 33.064230 -116.439129 242 6496ft 119kts
19-May-21 15:11 33.045478 -116.479330 241 6499ft 118kts
19-May-21 15:11 33.031744 -116.508140 241 6503ft 121kts
19-May-21 15:12 33.016034 -116.540316 240 6885ft 102kts
19-May-21 15:13 33.001471 -116.567935 237 7401ft 96kts
19-May-21 15:15 32.984056 -116.597529 234 7971ft 90kts
19-May-21 15:16 32.968021 -116.621522 231 8445ft 101kts
19-May-21 15:16 32.951193 -116.645294 231 8491ft 120kts
19-May-21 15:17 32.929042 -116.676096 230 8493ft 123kts
19-May-21 15:18 32.906846 -116.706501 230 8497ft 121kts
19-May-21 15:19 32.884420 -116.736548 229 8505ft 121kts
19-May-21 15:20 32.861636 -116.766501 229 8501ft 122kts
19-May-21 15:21 32.838581 -116.796398 228 8500ft 122kts
19-May-21 15:22 32.815310 -116.826124 228 8502ft 123kts
19-May-21 15:23 32.791890 -116.855481 227 8492ft 121kts
19-May-21 15:24 32.768560 -116.884246 227 8501ft 121kts
19-May-21 15:25 32.744972 -116.912759 226 8500ft 121kts
19-May-21 15:26 32.721061 -116.941140 226 8503ft 121kts
19-May-21 15:27 32.696711 -116.969580 225 8495ft 122kts
19-May-21 15:28 32.672283 -116.997763 225 8498ft 122kts
19-May-21 15:29 32.647715 -117.025616 225 8498ft 121kts
19-May-21 15:30 32.651425 -117.053230 333 8502ft 123kts
19-May-21 15:31 32.682911 -117.068911 335 8500ft 123kts
19-May-21 15:32 32.705173 -117.091816 243 8498ft 120kts
19-May-21 15:33 32.686096 -117.124584 234 8500ft 121kts
19-May-21 15:34 32.670764 -117.148291 234 9339ft 68kts
19-May-21 15:35 32.653940 -117.174141 234 9035ft 127kts
19-May-21 15:36 32.631097 -117.209043 233 8507ft 135kts
19-May-21 15:37 32.610495 -117.240155 233 8812ft 105kts
19-May-21 15:38 32.603427 -117.265812 330 9315ft 95kts
19-May-21 15:39 32.627557 -117.276904 337 9818ft 90kts
19-May-21 15:40 32.650612 -117.286602 337 10317ft 84kts
19-May-21 15:41 32.675331 -117.297168 338 10496ft 109kts
19-May-21 15:42 32.705781 -117.310217 338 10496ft 120kts
19-May-21 15:43 32.737515 -117.324038 337 10498ft 121kts
19-May-21 15:44 32.769232 -117.338161 337 10499ft 121kts
19-May-21 15:45 32.800868 -117.352544 336 10500ft 121kts
19-May-21 15:46 32.832429 -117.367183 336 10499ft 121kts
19-May-21 15:47 32.863930 -117.382077 336 10499ft 121kts
19-May-21 15:48 32.895369 -117.397246 335 10499ft 121kts
19-May-21 15:49 32.926634 -117.412625 335 10499ft 121kts
19-May-21 15:50 32.956499 -117.430769 315 10499ft 120kts
19-May-21 15:51 32.977224 -117.461851 305 10500ft 119kts
19-May-21 15:52 32.997240 -117.493448 305 10499ft 119kts
19-May-21 15:53 33.017238 -117.525244 305 10500ft 119kts
19-May-21 15:54 33.037188 -117.557050 305 10500ft 119kts
19-May-21 15:55 33.057084 -117.588785 305 10500ft 119kts
19-May-21 15:56 33.077021 -117.620626 305 10500ft 119kts
19-May-21 15:57 33.096932 -117.652442 305 10500ft 119kts
19-May-21 15:58 33.116814 -117.684236 305 10500ft 119kts
19-May-21 15:59 33.136773 -117.716184 305 10500ft 119kts
19-May-21 16:00 33.156663 -117.748050 305 10500ft 119kts
19-May-21 16:01 33.176546 -117.779925 305 10500ft 119kts
19-May-21 16:02 33.196446 -117.811851 305 10499ft 119kts
19-May-21 16:03 33.216296 -117.843734 305 10499ft 119kts
19-May-21 16:04 33.236182 -117.875705 305 10499ft 119kts
19-May-21 16:05 33.256003 -117.907598 305 10499ft 119kts
19-May-21 16:06 33.275844 -117.939555 305 10500ft 119kts
19-May-21 16:07 33.295719 -117.971586 305 10499ft 119kts
19-May-21 16:08 33.315567 -118.003604 305 10499ft 119kts
19-May-21 16:09 33.335383 -118.035599 305 10499ft 119kts
19-May-21 16:10 33.355214 -118.067644 305 10500ft 119kts
19-May-21 16:11 33.374985 -118.099622 305 10500ft 119kts
19-May-21 16:12 33.394794 -118.131683 305 10499ft 119kts
19-May-21 16:13 33.414630 -118.163819 305 10500ft 119kts
19-May-21 16:14 33.434432 -118.195934 305 10500ft 119kts
19-May-21 16:15 33.454204 -118.228024 305 10500ft 119kts
19-May-21 16:16 33.473991 -118.260163 305 10500ft 120kts
19-May-21 16:17 33.493706 -118.292221 305 10500ft 119kts
19-May-21 16:18 33.513520 -118.324464 305 10499ft 119kts
19-May-21 16:19 33.533254 -118.356607 305 10500ft 119kts
19-May-21 16:20 33.552968 -118.388742 305 10499ft 119kts
19-May-21 16:21 33.572766 -118.421047 305 10500ft 119kts
19-May-21 16:22 33.592462 -118.453210 304 10499ft 119kts
19-May-21 16:23 33.612188 -118.485446 304 10499ft 119kts
19-May-21 16:24 33.631903 -118.517700 304 10500ft 119kts
19-May-21 16:25 33.651553 -118.549874 304 10499ft 119kts
19-May-21 16:26 33.671288 -118.582214 304 10499ft 119kts
19-May-21 16:27 33.690949 -118.614475 304 10499ft 119kts
19-May-21 16:28 33.710611 -118.646749 304 10499ft 119kts
19-May-21 16:29 33.730269 -118.679045 304 10500ft 120kts
19-May-21 16:30 33.749968 -118.711440 304 10500ft 120kts
19-May-21 16:31 33.769593 -118.743740 304 10499ft 120kts
19-May-21 16:32 33.790558 -118.778282 305 9992ft 139kts
19-May-21 16:33 33.813537 -118.816194 304 9185ft 140kts
19-May-21 16:34 33.836454 -118.854017 304 8384ft 140kts
19-May-21 16:35 33.859423 -118.891969 304 7581ft 139kts
19-May-21 16:36 33.882216 -118.929681 304 6780ft 139kts
19-May-21 16:37 33.904941 -118.967323 304 5981ft 139kts
19-May-21 16:38 33.927660 -119.004990 304 5179ft 138kts
19-May-21 16:39 33.950273 -119.042507 304 4379ft 138kts
19-May-21 16:40 33.972585 -119.079567 304 3691ft 132kts
19-May-21 16:41 33.993222 -119.113895 304 3605ft 122kts
19-May-21 16:42 34.013059 -119.146894 304 3601ft 121kts
19-May-21 16:43 34.032632 -119.179503 304 3600ft 119kts
19-May-21 16:44 34.051946 -119.211725 304 3601ft 120kts
19-May-21 16:45 34.071415 -119.244221 304 3536ft 122kts
19-May-21 16:46 34.092320 -119.279135 304 3034ft 130kts
19-May-21 16:47 34.113630 -119.314756 304 2575ft 130kts
19-May-21 16:48 34.133975 -119.348818 304 2504ft 122kts
19-May-21 16:49 34.153848 -119.382121 304 2362ft 128kts
19-May-21 16:50 34.175223 -119.417944 304 1860ft 132kts
19-May-21 16:51 34.196465 -119.453608 304 1447ft 127kts
19-May-21 16:52 34.216501 -119.487281 304 1401ft 121kts
19-May-21 16:53 34.236041 -119.520131 304 1401ft 120kts
19-May-21 16:54 34.255591 -119.553032 304 1401ft 120kts
19-May-21 16:55 34.275143 -119.585960 304 1399ft 120kts
19-May-21 16:56 34.294634 -119.618835 304 1400ft 120kts
19-May-21 16:57 34.314115 -119.651727 304 1400ft 120kts
19-May-21 16:58 34.333654 -119.684735 304 1399ft 120kts
19-May-21 16:59 34.353151 -119.717704 304 1401ft 120kts
19-May-21 17:00 34.372575 -119.750586 304 1399ft 118kts
19-May-21 17:01 34.387674 -119.779637 257 1397ft 96kts
19-May-21 17:02 34.386143 -119.770706 321 1403ft 96kts
19-May-21 17:03 34.395905 -119.797492 287 1393ft 74kts
19-May-21 17:04 34.405901 -119.821869 331 778ft 97kts
19-May-21 17:05 34.427515 -119.821697 306 408ft 63kts
19-May-21 17:06 34.427747 -119.841427 248 14ft 6kts
19-May-21 17:07 34.426986 -119.841479 167 16ft 0kts
19-May-21 17:08 34.426986 -119.841479 167 16ft 0kts
19-May-21 17:09 34.426986 -119.841479 167 16ft 0kts
19-May-21 17:10 34.426848 -119.841431 163 16ft 5kts
19-May-21 17:11 34.426695 -119.838588 101 18ft 9kts
19-May-21 17:12 34.423709 -119.837430 163 18ft 16kts
19-May-21 17:13 34.422084 -119.836765 259 16ft 0kts
19-May-21 17:14 34.422084 -119.836765 259 16ft 0kts
19-May-21 17:15 34.422084 -119.836765 259 16ft 0kts
19-May-21 17:16 34.422084 -119.836765 259 16ft 0kts

Navigation Log

Ident Type
Flight plan parsing failed, navigation log unavailable